createdAt,value
2017-12-28T00:00:48.042Z,4.32
2017-12-28T00:01:48.015Z,4.26
2017-12-28T00:02:47.939Z,4.20
2017-12-28T00:03:47.908Z,4.17
2017-12-28T00:04:47.881Z,4.24
2017-12-28T00:05:47.868Z,4.26
2017-12-28T00:06:47.786Z,4.19
2017-12-28T00:07:47.767Z,4.14
2017-12-28T00:08:47.751Z,4.23
2017-12-28T00:09:47.671Z,4.22
2017-12-28T00:10:47.622Z,4.24
2017-12-28T00:11:47.587Z,4.23
2017-12-28T00:12:47.611Z,4.17
2017-12-28T00:13:47.510Z,4.17
2017-12-28T00:14:47.568Z,4.22
2017-12-28T00:15:47.418Z,4.19
2017-12-28T00:16:47.444Z,4.23
2017-12-28T00:17:47.372Z,4.24
2017-12-28T00:18:47.319Z,4.14
2017-12-28T00:19:47.267Z,4.20
2017-12-28T00:20:47.237Z,4.22
2017-12-28T00:21:47.223Z,4.19
2017-12-28T00:22:47.145Z,4.22
2017-12-28T00:23:47.100Z,4.23
2017-12-28T00:24:47.057Z,4.23
2017-12-28T00:25:47.033Z,4.23
2017-12-28T00:26:46.997Z,4.24
2017-12-28T00:27:46.952Z,4.20
2017-12-28T00:28:46.937Z,4.17
2017-12-28T00:29:46.882Z,4.26
2017-12-28T00:30:46.841Z,4.17
2017-12-28T00:31:46.776Z,4.26
2017-12-28T00:32:46.828Z,4.31
2017-12-28T00:33:46.721Z,4.30
2017-12-28T00:34:46.707Z,4.31
2017-12-28T00:35:46.632Z,4.32
2017-12-28T00:36:46.617Z,4.30
2017-12-28T00:37:46.540Z,4.26
2017-12-28T00:38:46.533Z,4.30
2017-12-28T00:39:46.455Z,4.32
2017-12-28T00:40:46.457Z,4.32
2017-12-28T00:41:46.409Z,4.34
2017-12-28T00:42:46.358Z,4.31
2017-12-28T00:43:46.374Z,4.23
2017-12-28T00:44:46.313Z,4.30
2017-12-28T00:45:46.230Z,4.32
2017-12-28T00:46:46.190Z,4.37
2017-12-28T00:47:46.140Z,4.28
2017-12-28T00:48:46.097Z,4.30
2017-12-28T00:49:46.127Z,4.31
2017-12-28T00:50:46.055Z,4.24
2017-12-28T00:51:45.978Z,4.26
2017-12-28T00:52:45.995Z,4.34
2017-12-28T00:53:45.941Z,4.26
2017-12-28T00:54:45.919Z,4.31
2017-12-28T00:55:45.839Z,4.35
2017-12-28T00:56:45.790Z,4.30
2017-12-28T00:57:45.750Z,4.26
2017-12-28T00:58:45.695Z,4.23
2017-12-28T00:59:46.008Z,4.16
2017-12-28T01:00:45.651Z,4.19
2017-12-28T01:01:45.596Z,4.20
2017-12-28T01:02:45.553Z,4.23
2017-12-28T01:03:45.505Z,4.19
2017-12-28T01:04:45.501Z,4.22
2017-12-28T01:05:45.439Z,4.19
2017-12-28T01:06:45.411Z,4.17
2017-12-28T01:07:45.363Z,4.16
2017-12-28T01:08:45.299Z,4.16
2017-12-28T01:09:45.258Z,4.22
2017-12-28T01:10:45.239Z,4.17
2017-12-28T01:11:45.221Z,4.02
2017-12-28T01:12:45.141Z,4.14
2017-12-28T01:13:47.558Z,4.14
2017-12-28T01:14:46.523Z,4.16
2017-12-28T01:15:46.022Z,4.16
2017-12-28T01:16:44.978Z,4.17
2017-12-28T01:17:44.969Z,4.16
2017-12-28T01:18:44.948Z,4.13
2017-12-28T01:19:44.857Z,4.19
2017-12-28T01:20:44.819Z,4.22
2017-12-28T01:21:44.804Z,4.20
2017-12-28T01:22:44.735Z,4.12
2017-12-28T01:23:44.695Z,4.13
2017-12-28T01:24:44.655Z,4.22
2017-12-28T01:25:44.627Z,4.16
2017-12-28T01:26:44.586Z,4.12
2017-12-28T01:27:44.537Z,4.19
2017-12-28T01:28:44.493Z,4.13
2017-12-28T01:29:44.514Z,4.20
2017-12-28T01:30:44.455Z,4.14
2017-12-28T01:31:44.378Z,4.06
2017-12-28T01:32:44.335Z,4.04
2017-12-28T01:33:44.318Z,4.01
2017-12-28T01:34:44.299Z,4.04
2017-12-28T01:35:44.227Z,4.10
2017-12-28T01:36:44.175Z,4.05
2017-12-28T01:37:44.156Z,4.10
2017-12-28T01:38:44.124Z,4.05
2017-12-28T01:39:44.126Z,4.08
2017-12-28T01:40:44.013Z,4.04
2017-12-28T01:41:43.985Z,4.01
2017-12-28T01:42:43.947Z,3.98
2017-12-28T01:43:43.895Z,3.99
2017-12-28T01:44:43.866Z,3.99
2017-12-28T01:45:44.522Z,3.94
2017-12-28T01:46:43.771Z,3.96
2017-12-28T01:47:43.757Z,3.99
2017-12-28T01:48:43.770Z,3.98
2017-12-28T01:49:44.179Z,3.95
2017-12-28T01:50:43.616Z,3.96
2017-12-28T01:51:43.712Z,3.92
2017-12-28T01:52:43.530Z,3.99
2017-12-28T01:53:43.516Z,3.98
2017-12-28T01:54:43.495Z,3.99
2017-12-28T01:55:43.429Z,4.05
2017-12-28T01:56:43.376Z,3.95
2017-12-28T01:57:43.373Z,4.08
2017-12-28T01:58:43.316Z,3.94
2017-12-28T01:59:43.251Z,3.98
2017-12-28T02:00:43.224Z,3.94
2017-12-28T02:01:43.200Z,3.96
2017-12-28T02:02:43.165Z,3.96
2017-12-28T02:03:43.090Z,3.96
2017-12-28T02:04:43.074Z,3.98
2017-12-28T02:05:43.007Z,3.94
2017-12-28T02:06:42.963Z,3.91
2017-12-28T02:07:42.927Z,3.91
2017-12-28T02:08:42.886Z,3.95
2017-12-28T02:09:42.851Z,3.91
2017-12-28T02:10:42.829Z,3.83
2017-12-28T02:11:42.801Z,3.95
2017-12-28T02:12:42.724Z,3.80
2017-12-28T02:13:42.692Z,3.84
2017-12-28T02:14:42.678Z,3.81
2017-12-28T02:15:42.645Z,3.81
2017-12-28T02:16:42.583Z,3.78
2017-12-28T02:17:42.545Z,3.87
2017-12-28T02:18:42.483Z,3.81
2017-12-28T02:19:42.442Z,3.80
2017-12-28T02:20:42.452Z,3.81
2017-12-28T02:21:42.360Z,3.87
2017-12-28T02:22:42.358Z,3.83
2017-12-28T02:23:42.336Z,3.78
2017-12-28T02:24:42.246Z,3.81
2017-12-28T02:25:42.198Z,3.87
2017-12-28T02:26:42.158Z,3.87
2017-12-28T02:27:42.130Z,3.83
2017-12-28T02:28:42.090Z,3.86
2017-12-28T02:29:42.046Z,3.80
2017-12-28T02:30:42.054Z,3.86
2017-12-28T02:31:41.958Z,3.87
2017-12-28T02:32:41.983Z,3.81
2017-12-28T02:33:41.875Z,3.84
2017-12-28T02:34:41.914Z,3.83
2017-12-28T02:35:41.792Z,3.68
2017-12-28T02:36:41.761Z,3.74
2017-12-28T02:37:41.727Z,3.63
2017-12-28T02:38:41.686Z,3.69
2017-12-28T02:39:41.675Z,3.66
2017-12-28T02:40:41.592Z,3.68
2017-12-28T02:41:42.225Z,3.66
2017-12-28T02:42:41.526Z,3.66
2017-12-28T02:43:41.539Z,3.62
2017-12-28T02:44:41.431Z,3.66
2017-12-28T02:45:41.390Z,3.56
2017-12-28T02:46:41.375Z,3.65
2017-12-28T02:47:41.311Z,3.68
2017-12-28T02:48:41.281Z,3.66
2017-12-28T02:49:41.243Z,3.63
2017-12-28T02:50:41.208Z,3.62
2017-12-28T02:51:41.162Z,3.62
2017-12-28T02:52:41.167Z,3.53
2017-12-28T02:53:41.094Z,3.56
2017-12-28T02:54:41.086Z,3.48
2017-12-28T02:55:40.991Z,3.58
2017-12-28T02:56:40.966Z,3.53
2017-12-28T02:57:40.903Z,3.50
2017-12-28T02:58:40.866Z,3.41
2017-12-28T02:59:40.860Z,3.47
2017-12-28T03:00:40.806Z,3.48
2017-12-28T03:01:40.754Z,3.42
2017-12-28T03:02:40.745Z,3.31
2017-12-28T03:03:40.671Z,3.29
2017-12-28T03:04:40.644Z,3.34
2017-12-28T03:05:40.587Z,3.34
2017-12-28T03:06:40.583Z,3.34
2017-12-28T03:07:40.500Z,3.31
2017-12-28T03:08:40.478Z,3.34
2017-12-28T03:09:40.465Z,3.31
2017-12-28T03:10:40.440Z,3.29
2017-12-28T03:11:40.366Z,3.31
2017-12-28T03:12:40.314Z,3.28
2017-12-28T03:13:40.268Z,3.28
2017-12-28T03:14:40.235Z,3.41
2017-12-28T03:15:40.190Z,3.32
2017-12-28T03:16:40.133Z,3.31
2017-12-28T03:17:40.102Z,3.36
2017-12-28T03:18:40.233Z,3.31
2017-12-28T03:19:40.011Z,3.41
2017-12-28T03:20:39.973Z,3.37
2017-12-28T03:21:39.985Z,3.55
2017-12-28T03:22:39.907Z,3.45
2017-12-28T03:23:39.859Z,3.48
2017-12-28T03:24:39.854Z,3.45
2017-12-28T03:25:39.765Z,3.47
2017-12-28T03:26:39.725Z,3.50
2017-12-28T03:27:39.703Z,3.42
2017-12-28T03:28:39.656Z,3.42
2017-12-28T03:29:39.616Z,3.42
2017-12-28T03:30:39.833Z,3.31
2017-12-28T03:31:39.532Z,3.50
2017-12-28T03:32:39.489Z,3.40
2017-12-28T03:33:39.442Z,3.29
2017-12-28T03:34:39.418Z,3.45
2017-12-28T03:35:39.359Z,3.48
2017-12-28T03:36:39.319Z,3.44
2017-12-28T03:37:39.282Z,3.41
2017-12-28T03:38:39.268Z,3.36
2017-12-28T03:39:39.217Z,3.47
2017-12-28T03:40:39.186Z,3.55
2017-12-28T03:41:39.164Z,3.59
2017-12-28T03:42:39.075Z,3.53
2017-12-28T03:43:39.045Z,3.66
2017-12-28T03:44:38.996Z,3.59
2017-12-28T03:45:38.957Z,3.45
2017-12-28T03:46:38.913Z,3.58
2017-12-28T03:47:38.904Z,3.55
2017-12-28T03:48:38.855Z,3.55
2017-12-28T03:49:38.804Z,3.60
2017-12-28T03:50:38.762Z,3.56
2017-12-28T03:51:38.723Z,3.53
2017-12-28T03:52:38.695Z,3.55
2017-12-28T03:53:38.662Z,3.55
2017-12-28T03:54:38.592Z,3.59
2017-12-28T03:55:38.565Z,3.53
2017-12-28T03:56:38.505Z,3.55
2017-12-28T03:57:38.467Z,3.60
2017-12-28T03:58:38.430Z,3.58
2017-12-28T03:59:38.481Z,3.59
2017-12-28T04:00:38.358Z,3.55
2017-12-28T04:01:38.304Z,3.51
2017-12-28T04:02:38.295Z,3.66
2017-12-28T04:03:38.248Z,3.65
2017-12-28T04:04:38.182Z,3.55
2017-12-28T04:05:38.179Z,3.50
2017-12-28T04:06:38.144Z,3.55
2017-12-28T04:07:38.064Z,3.58
2017-12-28T04:08:38.037Z,3.58
2017-12-28T04:09:37.977Z,3.59
2017-12-28T04:10:37.940Z,3.55
2017-12-28T04:11:37.906Z,3.53
2017-12-28T04:12:37.855Z,3.56
2017-12-28T04:13:37.837Z,3.55
2017-12-28T04:14:37.788Z,3.47
2017-12-28T04:15:37.761Z,3.55
2017-12-28T04:16:37.717Z,3.42
2017-12-28T04:17:37.660Z,3.48
2017-12-28T04:18:37.615Z,3.51
2017-12-28T04:19:37.599Z,3.45
2017-12-28T04:20:37.547Z,3.48
2017-12-28T04:21:37.526Z,3.48
2017-12-28T04:22:37.497Z,3.51
2017-12-28T04:23:37.521Z,3.47
2017-12-28T04:24:37.410Z,3.45
2017-12-28T04:25:37.331Z,3.44
2017-12-28T04:26:37.358Z,3.51
2017-12-28T04:27:37.271Z,3.50
2017-12-28T04:28:37.396Z,3.48
2017-12-28T04:29:37.184Z,3.40
2017-12-28T04:30:37.133Z,3.34
2017-12-28T04:31:37.088Z,3.47
2017-12-28T04:32:37.074Z,3.37
2017-12-28T04:33:37.047Z,3.45
2017-12-28T04:34:36.988Z,3.44
2017-12-28T04:35:36.926Z,3.47
2017-12-28T04:36:36.940Z,3.51
2017-12-28T04:37:36.850Z,3.45
2017-12-28T04:38:36.818Z,3.51
2017-12-28T04:39:36.787Z,3.51
2017-12-28T04:40:36.727Z,3.42
2017-12-28T04:41:36.693Z,3.44
2017-12-28T04:42:36.666Z,3.48
2017-12-28T04:43:36.633Z,3.55
2017-12-28T04:44:36.596Z,3.47
2017-12-28T04:45:36.534Z,3.50
2017-12-28T04:46:36.501Z,3.50
2017-12-28T04:47:36.496Z,3.48
2017-12-28T04:48:36.446Z,3.50
2017-12-28T04:49:36.359Z,3.45
2017-12-28T04:50:36.314Z,3.45
2017-12-28T04:51:36.309Z,3.48
2017-12-28T04:52:36.234Z,3.48
2017-12-28T04:53:36.225Z,3.47
2017-12-28T04:54:36.154Z,3.48
2017-12-28T04:55:36.285Z,3.47
2017-12-28T04:56:36.092Z,3.45
2017-12-28T04:57:36.059Z,3.48
2017-12-28T04:58:36.001Z,3.44
2017-12-28T04:59:35.950Z,3.44
2017-12-28T05:00:36.511Z,3.48
2017-12-28T05:01:35.867Z,3.45
2017-12-28T05:02:35.827Z,3.48
2017-12-28T05:03:35.804Z,3.44
2017-12-28T05:04:35.775Z,3.48
2017-12-28T05:05:35.707Z,3.53
2017-12-28T05:06:35.664Z,3.55
2017-12-28T05:07:35.639Z,3.50
2017-12-28T05:08:35.585Z,3.44
2017-12-28T05:09:35.545Z,3.53
2017-12-28T05:10:35.511Z,3.51
2017-12-28T05:11:35.466Z,3.47
2017-12-28T05:12:35.925Z,3.47
2017-12-28T05:13:35.392Z,3.42
2017-12-28T05:14:35.341Z,3.48
2017-12-28T05:15:35.331Z,3.48
2017-12-28T05:16:35.289Z,3.45
2017-12-28T05:17:35.247Z,3.51
2017-12-28T05:18:35.177Z,3.47
2017-12-28T05:19:35.136Z,3.56
2017-12-28T05:20:35.121Z,3.55
2017-12-28T05:21:35.068Z,3.48
2017-12-28T05:22:35.016Z,3.51
2017-12-28T05:23:34.999Z,3.48
2017-12-28T05:24:34.933Z,3.56
2017-12-28T05:25:34.909Z,3.53
2017-12-28T05:26:34.863Z,3.53
2017-12-28T05:27:34.813Z,3.51
2017-12-28T05:28:34.771Z,3.60
2017-12-28T05:29:34.731Z,3.50
2017-12-28T05:30:34.698Z,3.60
2017-12-28T05:31:34.651Z,3.59
2017-12-28T05:32:34.612Z,3.56
2017-12-28T05:33:34.571Z,3.62
2017-12-28T05:34:34.543Z,3.53
2017-12-28T05:35:34.530Z,3.58
2017-12-28T05:36:34.488Z,3.53
2017-12-28T05:37:34.421Z,3.65
2017-12-28T05:38:34.364Z,3.69
2017-12-28T05:39:34.358Z,3.58
2017-12-28T05:40:34.331Z,3.56
2017-12-28T05:41:34.266Z,3.70
2017-12-28T05:42:34.258Z,3.66
2017-12-28T05:43:34.188Z,3.70
2017-12-28T05:44:34.120Z,3.65
2017-12-28T05:45:34.095Z,3.69
2017-12-28T05:46:34.040Z,3.66
2017-12-28T05:47:34.001Z,3.68
2017-12-28T05:48:33.989Z,3.68
2017-12-28T05:49:33.920Z,3.69
2017-12-28T05:50:33.880Z,3.68
2017-12-28T05:51:33.842Z,3.70
2017-12-28T05:52:33.807Z,3.65
2017-12-28T05:53:33.757Z,3.68
2017-12-28T05:54:33.728Z,3.63
2017-12-28T05:55:33.684Z,3.80
2017-12-28T05:56:33.635Z,3.73
2017-12-28T05:57:33.610Z,3.70
2017-12-28T05:58:33.554Z,3.68
2017-12-28T05:59:33.553Z,3.63
2017-12-28T06:00:33.522Z,3.74
2017-12-28T06:01:33.471Z,3.68
2017-12-28T06:02:33.412Z,3.66
2017-12-28T06:03:33.400Z,3.76
2017-12-28T06:04:33.339Z,3.66
2017-12-28T06:05:33.270Z,3.70
2017-12-28T06:06:33.230Z,3.63
2017-12-28T06:07:33.220Z,3.65
2017-12-28T06:08:33.151Z,3.58
2017-12-28T06:09:33.111Z,3.66
2017-12-28T06:10:33.071Z,3.68
2017-12-28T06:11:33.080Z,3.66
2017-12-28T06:12:33.001Z,3.53
2017-12-28T06:13:32.971Z,3.51
2017-12-28T06:14:32.927Z,3.65
2017-12-28T06:15:32.868Z,3.53
2017-12-28T06:16:32.825Z,3.50
2017-12-28T06:17:32.788Z,3.58
2017-12-28T06:18:32.746Z,3.55
2017-12-28T06:19:32.713Z,3.53
2017-12-28T06:20:32.662Z,3.55
2017-12-28T06:21:32.633Z,3.59
2017-12-28T06:22:32.591Z,3.56
2017-12-28T06:23:32.542Z,3.47
2017-12-28T06:24:32.505Z,3.58
2017-12-28T06:25:32.493Z,3.53
2017-12-28T06:26:32.435Z,3.48
2017-12-28T06:27:32.393Z,3.45
2017-12-28T06:28:32.362Z,3.48
2017-12-28T06:29:32.300Z,3.34
2017-12-28T06:30:32.263Z,3.36
2017-12-28T06:31:32.240Z,3.34
2017-12-28T06:32:32.180Z,3.34
2017-12-28T06:33:32.158Z,3.29
2017-12-28T06:34:32.108Z,3.14
2017-12-28T06:35:32.082Z,3.14
2017-12-28T06:36:32.049Z,3.14
2017-12-28T06:37:32.301Z,3.04
2017-12-28T06:38:31.934Z,3.04
2017-12-28T06:39:31.904Z,2.98
2017-12-28T06:40:31.851Z,2.92
2017-12-28T06:41:31.818Z,2.82
2017-12-28T06:42:31.794Z,2.80
2017-12-28T06:43:31.741Z,2.85
2017-12-28T06:44:31.716Z,2.69
2017-12-28T06:45:31.664Z,2.64
2017-12-28T06:46:31.616Z,2.67
2017-12-28T06:47:31.585Z,2.60
2017-12-28T06:48:31.560Z,2.51
2017-12-28T06:49:31.516Z,2.51
2017-12-28T06:50:31.484Z,2.47
2017-12-28T06:51:31.422Z,2.53
2017-12-28T06:52:31.380Z,2.49
2017-12-28T06:53:31.359Z,2.53
2017-12-28T06:54:31.284Z,2.42
2017-12-28T06:55:31.251Z,2.57
2017-12-28T06:56:31.228Z,2.46
2017-12-28T06:57:31.179Z,2.49
2017-12-28T06:58:31.117Z,2.51
2017-12-28T06:59:31.077Z,2.53
2017-12-28T07:00:31.034Z,2.62
2017-12-28T07:01:31.004Z,2.62
2017-12-28T07:02:31.032Z,2.62
2017-12-28T07:03:30.913Z,2.57
2017-12-28T07:04:30.871Z,2.57
2017-12-28T07:05:30.837Z,2.61
2017-12-28T07:06:30.788Z,2.62
2017-12-28T07:07:30.749Z,2.69
2017-12-28T07:08:30.706Z,2.69
2017-12-28T07:09:30.666Z,2.71
2017-12-28T07:10:30.624Z,2.67
2017-12-28T07:11:30.582Z,2.71
2017-12-28T07:12:30.541Z,2.64
2017-12-28T07:13:30.502Z,2.65
2017-12-28T07:14:30.460Z,2.61
2017-12-28T07:15:30.419Z,2.65
2017-12-28T07:16:30.377Z,2.64
2017-12-28T07:17:30.337Z,2.67
2017-12-28T07:18:30.295Z,2.60
2017-12-28T07:19:30.253Z,2.62
2017-12-28T07:20:30.211Z,2.51
2017-12-28T07:21:30.172Z,2.50
2017-12-28T07:22:30.130Z,2.53
2017-12-28T07:23:30.089Z,2.51
2017-12-28T07:24:30.047Z,2.49
2017-12-28T07:25:30.006Z,2.51
2017-12-28T07:26:29.965Z,2.47
2017-12-28T07:27:29.925Z,2.50
2017-12-28T07:28:29.882Z,2.53
2017-12-28T07:29:29.841Z,2.57
2017-12-28T07:30:29.800Z,2.51
2017-12-28T07:31:29.760Z,2.67
2017-12-28T07:32:29.721Z,2.53
2017-12-28T07:33:29.678Z,2.65
2017-12-28T07:34:29.642Z,2.62
2017-12-28T07:35:29.599Z,2.64
2017-12-28T07:36:29.554Z,2.61
2017-12-28T07:37:29.511Z,2.61
2017-12-28T07:38:29.472Z,2.67
2017-12-28T07:39:29.428Z,2.71
2017-12-28T07:40:29.387Z,2.72
2017-12-28T07:41:29.345Z,2.71
2017-12-28T07:42:29.307Z,2.82
2017-12-28T07:43:29.266Z,2.79
2017-12-28T07:44:29.224Z,2.80
2017-12-28T07:45:29.182Z,2.77
2017-12-28T07:46:29.148Z,2.77
2017-12-28T07:47:29.101Z,2.83
2017-12-28T07:48:29.060Z,2.83
2017-12-28T07:49:29.017Z,2.77
2017-12-28T07:50:28.980Z,2.74
2017-12-28T07:51:31.600Z,2.83
2017-12-28T07:52:28.896Z,2.79
2017-12-28T07:53:28.856Z,2.82
2017-12-28T07:54:28.813Z,2.77
2017-12-28T07:55:28.793Z,2.79
2017-12-28T07:56:28.731Z,2.85
2017-12-28T07:57:28.689Z,2.80
2017-12-28T07:58:28.650Z,2.77
2017-12-28T07:59:29.266Z,2.85
2017-12-28T08:00:28.569Z,2.85
2017-12-28T08:01:28.529Z,2.75
2017-12-28T08:02:28.485Z,2.87
2017-12-28T08:03:28.496Z,2.85
2017-12-28T08:04:28.402Z,2.83
2017-12-28T08:05:28.506Z,2.82
2017-12-28T08:06:28.324Z,2.79
2017-12-28T08:07:28.281Z,2.86
2017-12-28T08:08:28.238Z,2.80
2017-12-28T08:09:28.198Z,2.85
2017-12-28T08:10:28.157Z,2.92
2017-12-28T08:11:28.117Z,2.92
2017-12-28T08:12:28.075Z,2.85
2017-12-28T08:13:28.035Z,2.80
2017-12-28T08:14:27.992Z,2.79
2017-12-28T08:15:27.983Z,2.87
2017-12-28T08:16:27.913Z,2.80
2017-12-28T08:17:27.870Z,2.87
2017-12-28T08:18:27.829Z,2.86
2017-12-28T08:19:27.789Z,2.89
2017-12-28T08:20:27.745Z,2.82
2017-12-28T08:21:27.703Z,2.92
2017-12-28T08:22:27.666Z,2.82
2017-12-28T08:23:27.625Z,2.80
2017-12-28T08:24:27.582Z,2.77
2017-12-28T08:25:27.881Z,2.82
2017-12-28T08:26:27.502Z,2.85
2017-12-28T08:27:27.460Z,2.82
2017-12-28T08:28:27.420Z,2.90
2017-12-28T08:29:27.380Z,2.85
2017-12-28T08:30:27.339Z,2.80
2017-12-28T08:31:27.299Z,2.85
2017-12-28T08:32:27.253Z,2.90
2017-12-28T08:33:27.215Z,2.86
2017-12-28T08:34:27.173Z,2.92
2017-12-28T08:35:27.134Z,2.80
2017-12-28T08:36:27.092Z,2.85
2017-12-28T08:37:27.049Z,2.92
2017-12-28T08:38:27.010Z,2.92
2017-12-28T08:39:26.970Z,2.93
2017-12-28T08:40:26.929Z,2.90
2017-12-28T08:41:26.887Z,2.90
2017-12-28T08:42:26.847Z,2.92
2017-12-28T08:43:26.805Z,3.01
2017-12-28T08:44:26.762Z,3.04
2017-12-28T08:45:26.721Z,3.00
2017-12-28T08:46:26.694Z,3.05
2017-12-28T08:47:26.645Z,2.97
2017-12-28T08:48:26.600Z,3.04
2017-12-28T08:49:27.505Z,3.13
2017-12-28T08:50:26.520Z,3.07
2017-12-28T08:51:26.478Z,3.03
2017-12-28T08:52:26.440Z,3.10
2017-12-28T08:53:26.423Z,3.14
2017-12-28T08:54:26.354Z,3.16
2017-12-28T08:55:26.316Z,3.10
2017-12-28T08:56:26.275Z,3.08
2017-12-28T08:57:26.229Z,3.14
2017-12-28T08:58:26.193Z,3.08
2017-12-28T08:59:26.150Z,3.16
2017-12-28T09:00:26.110Z,3.21
2017-12-28T09:01:26.070Z,3.16
2017-12-28T09:02:26.029Z,3.13
2017-12-28T09:03:26.066Z,3.22
2017-12-28T09:04:26.082Z,3.19
2017-12-28T09:05:25.908Z,3.23
2017-12-28T09:06:25.866Z,3.11
2017-12-28T09:07:25.825Z,3.26
2017-12-28T09:08:25.783Z,3.25
2017-12-28T09:09:25.743Z,3.26
2017-12-28T09:10:25.725Z,3.14
2017-12-28T09:11:25.663Z,3.21
2017-12-28T09:12:25.620Z,3.16
2017-12-28T09:13:25.581Z,3.23
2017-12-28T09:14:25.540Z,3.22
2017-12-28T09:15:25.499Z,3.34
2017-12-28T09:16:25.457Z,3.16
2017-12-28T09:17:25.418Z,3.26
2017-12-28T09:18:25.374Z,3.29
2017-12-28T09:19:25.337Z,3.32
2017-12-28T09:20:25.302Z,3.32
2017-12-28T09:21:25.256Z,3.40
2017-12-28T09:22:25.214Z,3.41
2017-12-28T09:23:25.170Z,3.41
2017-12-28T09:24:25.133Z,3.50
2017-12-28T09:25:25.093Z,3.48
2017-12-28T09:26:25.051Z,3.47
2017-12-28T09:27:25.011Z,3.58
2017-12-28T09:28:24.969Z,3.58
2017-12-28T09:29:24.930Z,3.66
2017-12-28T09:30:24.894Z,3.68
2017-12-28T09:31:24.852Z,3.69
2017-12-28T09:32:24.826Z,3.91
2017-12-28T09:33:24.768Z,4.10
2017-12-28T09:34:24.731Z,4.24
2017-12-28T09:35:24.689Z,4.37
2017-12-28T09:36:24.651Z,4.71
2017-12-28T09:37:24.613Z,4.77
2017-12-28T09:38:24.575Z,4.89
2017-12-28T09:39:24.539Z,5.08
2017-12-28T09:40:24.499Z,5.35
2017-12-28T09:41:24.462Z,5.51
2017-12-28T09:42:24.427Z,5.89
2017-12-28T09:43:24.392Z,6.08
2017-12-28T09:44:24.355Z,6.16
2017-12-28T09:45:24.318Z,6.22
2017-12-28T09:46:24.285Z,5.90
2017-12-28T09:47:24.304Z,5.62
2017-12-28T09:48:24.216Z,5.41
2017-12-28T09:49:24.181Z,5.18
2017-12-28T09:50:24.145Z,5.04
2017-12-28T09:51:24.111Z,4.92
2017-12-28T09:52:24.075Z,4.75
2017-12-28T09:53:24.039Z,4.67
2017-12-28T09:54:24.001Z,4.62
2017-12-28T09:55:23.962Z,4.62
2017-12-28T09:56:23.925Z,4.60
2017-12-28T09:57:23.901Z,4.63
2017-12-28T09:58:23.854Z,4.67
2017-12-28T09:59:23.811Z,4.70
2017-12-28T10:00:23.776Z,4.80
2017-12-28T10:01:23.739Z,4.84
2017-12-28T10:02:23.701Z,4.70
2017-12-28T10:03:23.667Z,4.75
2017-12-28T10:04:23.628Z,4.62
2017-12-28T10:05:23.904Z,4.78
2017-12-28T10:06:23.549Z,4.77
2017-12-28T10:07:23.513Z,4.84
2017-12-28T10:08:23.475Z,5.00
2017-12-28T10:09:23.438Z,5.18
2017-12-28T10:10:23.399Z,5.30
2017-12-28T10:11:24.210Z,5.50
2017-12-28T10:12:23.325Z,5.57
2017-12-28T10:13:23.287Z,5.51
2017-12-28T10:14:23.252Z,5.36
2017-12-28T10:15:23.216Z,5.47
2017-12-28T10:16:23.177Z,5.46
2017-12-28T10:17:23.143Z,5.38
2017-12-28T10:18:23.107Z,5.33
2017-12-28T10:19:23.068Z,5.35
2017-12-28T10:20:23.032Z,5.23
2017-12-28T10:21:22.994Z,5.29
2017-12-28T10:22:22.959Z,5.17
2017-12-28T10:23:22.922Z,5.38
2017-12-28T10:24:22.885Z,5.21
2017-12-28T10:25:22.851Z,5.50
2017-12-28T10:26:22.814Z,6.30
2017-12-28T10:27:22.780Z,7.05
2017-12-28T10:28:22.744Z,7.94
2017-12-28T10:29:22.709Z,8.13
2017-12-28T10:30:22.678Z,8.37
2017-12-28T10:31:22.646Z,8.53
2017-12-28T10:32:22.617Z,8.63
2017-12-28T10:33:22.588Z,8.33
2017-12-28T10:34:22.556Z,8.42
2017-12-28T10:35:22.822Z,8.23
2017-12-28T10:36:22.495Z,8.30
2017-12-28T10:37:22.466Z,8.30
2017-12-28T10:38:22.435Z,8.26
2017-12-28T10:39:22.408Z,8.19
2017-12-28T10:40:22.375Z,7.94
2017-12-28T10:41:22.348Z,7.50
2017-12-28T10:42:22.318Z,7.66
2017-12-28T10:43:22.287Z,8.05
2017-12-28T10:44:22.257Z,8.46
2017-12-28T10:45:22.227Z,8.30
2017-12-28T10:46:22.196Z,8.10
2017-12-28T10:47:22.167Z,7.85
2017-12-28T10:48:22.133Z,7.58
2017-12-28T10:49:22.106Z,7.29
2017-12-28T10:50:22.073Z,7.06
2017-12-28T10:51:22.043Z,6.85
2017-12-28T10:52:22.010Z,7.00
2017-12-28T10:53:21.976Z,6.74
2017-12-28T10:54:21.945Z,6.48
2017-12-28T10:55:21.914Z,6.46
2017-12-28T10:56:21.878Z,6.11
2017-12-28T10:57:21.849Z,6.11
2017-12-28T10:58:21.818Z,6.35
2017-12-28T10:59:21.782Z,6.26
2017-12-28T11:00:21.746Z,6.09
2017-12-28T11:01:21.717Z,6.12
2017-12-28T11:02:21.679Z,5.90
2017-12-28T11:03:21.728Z,5.79
2017-12-28T11:04:21.608Z,5.53
2017-12-28T11:05:21.577Z,5.48
2017-12-28T11:06:21.539Z,5.65
2017-12-28T11:07:21.507Z,5.82
2017-12-28T11:08:21.476Z,5.83
2017-12-28T11:09:21.439Z,6.01
2017-12-28T11:10:21.403Z,6.33
2017-12-28T11:11:21.364Z,6.28
2017-12-28T11:12:21.325Z,6.36
2017-12-28T11:13:21.294Z,6.44
2017-12-28T11:14:21.261Z,6.20
2017-12-28T11:15:21.226Z,6.16
2017-12-28T11:16:21.187Z,6.08
2017-12-28T11:17:21.157Z,5.90
2017-12-28T11:18:21.120Z,5.75
2017-12-28T11:19:21.086Z,5.62
2017-12-28T11:20:21.049Z,5.61
2017-12-28T11:21:21.014Z,5.62
2017-12-28T11:22:20.977Z,5.54
2017-12-28T11:23:20.941Z,5.68
2017-12-28T11:24:20.905Z,5.66
2017-12-28T11:25:20.868Z,5.59
2017-12-28T11:26:20.833Z,5.56
2017-12-28T11:27:20.799Z,5.79
2017-12-28T11:28:20.759Z,6.05
2017-12-28T11:29:20.723Z,6.09
2017-12-28T11:30:20.689Z,6.02
2017-12-28T11:31:20.656Z,5.84
2017-12-28T11:32:20.615Z,5.57
2017-12-28T11:33:20.581Z,5.33
2017-12-28T11:34:20.543Z,5.18
2017-12-28T11:35:20.506Z,5.14
2017-12-28T11:36:20.470Z,5.10
2017-12-28T11:37:20.432Z,4.94
2017-12-28T11:38:20.399Z,4.93
2017-12-28T11:39:20.361Z,4.71
2017-12-28T11:40:20.320Z,4.77
2017-12-28T11:41:20.287Z,4.62
2017-12-28T11:42:20.247Z,4.75
2017-12-28T11:43:20.209Z,4.62
2017-12-28T11:44:20.169Z,4.62
2017-12-28T11:45:20.131Z,4.60
2017-12-28T11:46:20.095Z,4.75
2017-12-28T11:47:20.056Z,4.60
2017-12-28T11:48:20.017Z,4.62
2017-12-28T11:49:19.982Z,4.59
2017-12-28T11:50:19.944Z,4.78
2017-12-28T11:51:19.905Z,5.07
2017-12-28T11:52:19.867Z,5.18
2017-12-28T11:53:19.828Z,5.17
2017-12-28T11:54:19.790Z,5.14
2017-12-28T11:55:19.754Z,5.10
2017-12-28T11:56:19.744Z,5.08
2017-12-28T11:57:19.679Z,5.04
2017-12-28T11:58:19.657Z,4.97
2017-12-28T11:59:19.858Z,5.15
2017-12-28T12:00:19.566Z,5.30
2017-12-28T12:01:19.530Z,5.26
2017-12-28T12:02:19.493Z,5.33
2017-12-28T12:03:19.452Z,5.44
2017-12-28T12:04:19.421Z,5.54
2017-12-28T12:05:19.402Z,5.38
2017-12-28T12:06:19.345Z,5.36
2017-12-28T12:07:19.306Z,5.18
2017-12-28T12:08:19.269Z,5.35
2017-12-28T12:09:19.234Z,5.33
2017-12-28T12:10:19.226Z,5.35
2017-12-28T12:11:19.230Z,5.36
2017-12-28T12:12:19.230Z,5.41
2017-12-28T12:13:19.089Z,5.54
2017-12-28T12:14:19.076Z,5.56
2017-12-28T12:15:19.110Z,5.48
2017-12-28T12:16:18.978Z,5.41
2017-12-28T12:17:18.942Z,5.26
2017-12-28T12:18:18.902Z,5.12
2017-12-28T12:19:18.868Z,4.90
2017-12-28T12:20:18.832Z,4.92
2017-12-28T12:21:18.793Z,4.80
2017-12-28T12:22:18.756Z,4.67
2017-12-28T12:23:18.718Z,4.62
2017-12-28T12:24:18.676Z,4.60
2017-12-28T12:25:18.641Z,4.60
2017-12-28T12:26:18.603Z,4.63
2017-12-28T12:27:18.565Z,4.59
2017-12-28T12:28:18.528Z,4.66
2017-12-28T12:29:18.489Z,4.66
2017-12-28T12:30:18.585Z,4.63
2017-12-28T12:31:18.411Z,4.62
2017-12-28T12:32:18.374Z,4.62
2017-12-28T12:33:18.337Z,4.70
2017-12-28T12:34:18.298Z,4.62
2017-12-28T12:35:18.260Z,4.73
2017-12-28T12:36:18.222Z,4.93
2017-12-28T12:37:18.371Z,5.32
2017-12-28T12:38:18.146Z,5.35
2017-12-28T12:39:18.126Z,5.26
2017-12-28T12:40:18.072Z,5.35
2017-12-28T12:41:18.037Z,5.32
2017-12-28T12:42:17.998Z,5.29
2017-12-28T12:43:17.961Z,5.36
2017-12-28T12:44:17.924Z,5.39
2017-12-28T12:45:17.888Z,5.35
2017-12-28T12:46:17.848Z,5.29
2017-12-28T12:47:17.809Z,5.17
2017-12-28T12:48:17.788Z,5.21
2017-12-28T12:49:17.738Z,5.21
2017-12-28T12:50:17.701Z,5.14
2017-12-28T12:51:17.662Z,5.15
2017-12-28T12:52:17.622Z,5.08
2017-12-28T12:53:17.587Z,5.14
2017-12-28T12:54:17.550Z,5.18
2017-12-28T12:55:17.512Z,5.17
2017-12-28T12:56:17.473Z,5.11
2017-12-28T12:57:17.436Z,5.08
2017-12-28T12:58:17.406Z,5.05
2017-12-28T12:59:17.361Z,5.05
2017-12-28T13:00:17.322Z,5.04
2017-12-28T13:01:17.287Z,5.00
2017-12-28T13:02:17.247Z,4.96
2017-12-28T13:03:17.210Z,4.97
2017-12-28T13:04:17.170Z,4.93
2017-12-28T13:05:17.132Z,4.87
2017-12-28T13:06:17.094Z,4.75
2017-12-28T13:07:17.056Z,4.82
2017-12-28T13:08:17.017Z,4.84
2017-12-28T13:09:16.984Z,4.77
2017-12-28T13:10:16.941Z,4.84
2017-12-28T13:11:16.909Z,4.80
2017-12-28T13:12:16.862Z,4.89
2017-12-28T13:13:16.822Z,4.89
2017-12-28T13:14:16.785Z,4.89
2017-12-28T13:15:16.745Z,4.78
2017-12-28T13:16:16.709Z,4.89
2017-12-28T13:17:16.672Z,4.87
2017-12-28T13:18:16.629Z,4.97